KRKR/RKR METAR and TAF weather

Enter ICAO airport designator
Station Type Date Time Source
KRKR METAR 2019/02/20 07:15 UTC NOAA

KRKR 200715Z AUTO 00000KT 10SM OVC015 01/01 A2991 RMK AO2 LTG DSNT E


Station Type Date Time Source
KRKR Decoded METAR 2019/02/20 07:15 UTC NOAA

Poteau, Robert S Kerr Airport, OK, United States (KRKR) 35-01-18N 094-37-17W
Feb 20, 2019 - 02:15 AM EST / 2019.02.20 0715 UTC
Wind: Calm:0
Visibility: 10 mile(s):0
Sky conditions: overcast
Weather: Lightning observed
Temperature: 33 F (1 C)
Dew Point: 33 F (1 C)
Relative Humidity: 100%
Pressure (altimeter): 29.91 in. Hg (1012 hPa)
ob: KRKR 200715Z AUTO 00000KT 10SM OVC015 01/01 A2991 RMK AO2 LTG DSNT E
cycle: 7

Station Type Date Time Source
KRKR TAF UTC NOAA

Error!


Example: see airport list